createdAt,value
2018-05-25T00:01:00.128Z,22.23
2018-05-25T00:03:44.381Z,21.87
2018-05-25T00:06:28.630Z,21.07
2018-05-25T00:09:12.903Z,20.63
2018-05-25T00:11:57.160Z,21.90
2018-05-25T00:14:41.401Z,24.10
2018-05-25T00:17:25.668Z,22.70
2018-05-25T00:20:09.893Z,23.97
2018-05-25T00:22:54.385Z,22.20
2018-05-25T00:25:38.624Z,24.93
2018-05-25T00:28:22.900Z,23.57
2018-05-25T00:31:07.141Z,24.23
2018-05-25T00:33:51.404Z,23.03
2018-05-25T00:36:35.639Z,25.17
2018-05-25T00:39:19.893Z,22.03
2018-05-25T00:42:04.153Z,26.67
2018-05-25T00:44:48.416Z,25.10
2018-05-25T00:47:32.652Z,24.33
2018-05-25T00:50:16.908Z,24.00
2018-05-25T00:53:01.157Z,25.23
2018-05-25T00:55:45.423Z,23.50
2018-05-25T00:58:29.665Z,23.97
2018-05-25T01:01:13.912Z,25.40
2018-05-25T01:03:58.153Z,23.87
2018-05-25T01:06:42.418Z,25.17
2018-05-25T01:09:26.661Z,24.53
2018-05-25T01:12:10.902Z,22.33
2018-05-25T01:14:55.161Z,24.70
2018-05-25T01:17:39.389Z,24.03
2018-05-25T01:20:23.657Z,22.90
2018-05-25T01:23:07.883Z,22.97
2018-05-25T01:25:52.870Z,22.67
2018-05-25T01:28:37.121Z,23.40
2018-05-25T01:31:21.339Z,22.57
2018-05-25T01:34:05.581Z,25.13
2018-05-25T01:36:49.834Z,21.63
2018-05-25T01:39:34.051Z,23.20
2018-05-25T01:42:18.344Z,22.57
2018-05-25T01:45:02.567Z,24.13
2018-05-25T01:47:46.802Z,21.93
2018-05-25T01:50:31.043Z,21.60
2018-05-25T01:53:15.278Z,21.77
2018-05-25T01:56:00.288Z,20.77
2018-05-25T01:58:44.536Z,18.77
2018-05-25T02:01:28.783Z,20.70
2018-05-25T02:04:13.026Z,20.53
2018-05-25T02:06:57.294Z,21.43
2018-05-25T02:09:41.512Z,21.60
2018-05-25T02:12:26.537Z,20.03
2018-05-25T02:15:10.759Z,20.73
2018-05-25T02:17:55.017Z,19.57
2018-05-25T02:20:39.252Z,21.70
2018-05-25T02:23:23.494Z,19.50
2018-05-25T02:26:08.507Z,17.83
2018-05-25T02:28:52.766Z,22.13
2018-05-25T02:31:37.007Z,21.87
2018-05-25T02:34:21.261Z,20.47
2018-05-25T02:37:05.494Z,22.63
2018-05-25T02:39:49.765Z,17.87
2018-05-25T02:42:34.015Z,19.70
2018-05-25T02:45:18.264Z,22.40
2018-05-25T02:48:02.491Z,21.47
2018-05-25T02:50:46.743Z,21.67
2018-05-25T02:53:30.975Z,21.90
2018-05-25T02:56:15.222Z,20.87
2018-05-25T02:58:59.450Z,20.23
2018-05-25T03:01:43.712Z,23.13
2018-05-25T03:04:27.929Z,22.33
2018-05-25T03:07:12.195Z,23.83
2018-05-25T03:09:56.419Z,23.77
2018-05-25T03:12:40.670Z,24.17
2018-05-25T03:15:24.912Z,21.17
2018-05-25T03:18:09.940Z,19.00
2018-05-25T03:20:54.173Z,21.13
2018-05-25T03:23:39.265Z,21.37
2018-05-25T03:26:23.498Z,21.03
2018-05-25T03:29:07.743Z,20.00
2018-05-25T03:31:51.982Z,23.47
2018-05-25T03:34:36.224Z,20.90
2018-05-25T03:37:21.221Z,21.83
2018-05-25T03:40:05.457Z,22.43
2018-05-25T03:42:49.710Z,22.50
2018-05-25T03:45:33.943Z,19.30
2018-05-25T03:48:18.954Z,21.13
2018-05-25T03:51:04.004Z,20.73
2018-05-25T03:53:48.260Z,22.67
2018-05-25T03:56:32.473Z,22.00
2018-05-25T03:59:35.281Z,22.03
2018-05-25T04:02:20.284Z,22.07
2018-05-25T04:05:04.624Z,22.17
2018-05-25T04:07:48.861Z,22.40
2018-05-25T04:10:33.874Z,23.23
2018-05-25T04:13:18.111Z,21.63
2018-05-25T04:16:02.396Z,19.60
2018-05-25T04:18:46.633Z,22.73
2018-05-25T04:21:30.881Z,22.17
2018-05-25T04:24:15.121Z,21.73
2018-05-25T04:26:59.409Z,22.53
2018-05-25T04:29:44.479Z,22.60
2018-05-25T04:32:28.754Z,23.70
2018-05-25T04:35:12.992Z,22.77
2018-05-25T04:37:57.254Z,25.27
2018-05-25T04:40:41.495Z,23.03
2018-05-25T04:43:25.736Z,24.17
2018-05-25T04:46:09.962Z,24.17
2018-05-25T04:48:54.224Z,23.77
2018-05-25T04:51:38.495Z,25.33
2018-05-25T04:54:22.718Z,24.90
2018-05-25T04:57:07.138Z,21.17
2018-05-25T04:59:52.133Z,23.73
2018-05-25T05:02:36.378Z,24.43
2018-05-25T05:05:20.626Z,25.20
2018-05-25T05:08:05.679Z,22.13
2018-05-25T05:10:49.933Z,25.67
2018-05-25T05:13:34.187Z,24.43
2018-05-25T05:16:18.439Z,23.00
2018-05-25T05:19:03.427Z,23.43
2018-05-25T05:21:48.435Z,21.77
2018-05-25T05:24:32.685Z,23.43
2018-05-25T05:27:16.925Z,23.00
2018-05-25T05:30:01.179Z,22.13
2018-05-25T05:32:45.412Z,24.70
2018-05-25T05:35:29.665Z,24.37
2018-05-25T05:38:13.901Z,23.57
2018-05-25T05:40:58.993Z,21.83
2018-05-25T05:43:43.179Z,22.30
2018-05-25T05:46:27.444Z,20.70
2018-05-25T05:49:11.705Z,21.73
2018-05-25T05:51:55.950Z,19.23
2018-05-25T05:54:40.198Z,19.70
2018-05-25T05:57:24.447Z,20.40
2018-05-25T06:00:08.686Z,21.07
2018-05-25T06:02:52.928Z,20.03
2018-05-25T06:05:37.150Z,20.90
2018-05-25T06:08:22.189Z,20.27
2018-05-25T06:11:06.420Z,18.17
2018-05-25T06:13:50.654Z,18.60
2018-05-25T06:16:34.942Z,20.07
2018-05-25T06:19:19.175Z,17.87
2018-05-25T06:22:03.445Z,17.67
2018-05-25T06:24:47.701Z,17.83
2018-05-25T06:27:31.966Z,18.20
2018-05-25T06:30:16.457Z,18.47
2018-05-25T06:33:01.467Z,19.23
2018-05-25T06:35:45.740Z,18.90
2018-05-25T06:38:29.996Z,19.50
2018-05-25T06:41:14.232Z,19.17
2018-05-25T06:43:58.496Z,17.90
2018-05-25T06:46:42.753Z,17.63
2018-05-25T06:49:27.742Z,18.67
2018-05-25T06:52:12.791Z,18.77
2018-05-25T06:54:57.021Z,17.83
2018-05-25T06:57:41.267Z,17.73
2018-05-25T07:00:25.502Z,16.73
2018-05-25T07:06:00.137Z,15.30
2018-05-25T07:08:45.192Z,15.10
2018-05-25T07:11:30.209Z,15.37
2018-05-25T07:14:14.460Z,14.83
2018-05-25T07:16:58.716Z,15.03
2018-05-25T07:19:43.113Z,15.80
2018-05-25T07:22:27.342Z,15.30
2018-05-25T07:25:11.614Z,15.57
2018-05-25T07:27:55.831Z,15.43
2018-05-25T07:30:40.106Z,13.87
2018-05-25T07:33:24.347Z,14.33
2018-05-25T07:36:08.582Z,13.60
2018-05-25T07:38:52.835Z,14.00
2018-05-25T07:41:37.065Z,13.37
2018-05-25T07:44:22.085Z,13.17
2018-05-25T07:47:06.344Z,13.50
2018-05-25T07:49:50.584Z,12.27
2018-05-25T07:52:34.848Z,11.83
2018-05-25T07:55:19.156Z,12.07
2018-05-25T07:58:04.185Z,10.60
2018-05-25T08:00:48.421Z,10.70
2018-05-25T08:03:32.650Z,8.67
2018-05-25T08:06:16.925Z,9.17
2018-05-25T08:09:01.869Z,9.87
2018-05-25T08:11:46.116Z,9.43
2018-05-25T08:14:30.372Z,8.50
2018-05-25T08:17:14.664Z,7.97
2018-05-25T08:19:58.871Z,7.80
2018-05-25T08:22:43.101Z,8.70
2018-05-25T08:25:28.104Z,7.93
2018-05-25T08:28:12.340Z,8.17
2018-05-25T08:30:56.585Z,10.20
2018-05-25T08:33:41.573Z,10.70
2018-05-25T08:36:25.808Z,10.77
2018-05-25T08:39:10.062Z,10.30
2018-05-25T08:41:55.073Z,10.27
2018-05-25T08:44:39.351Z,10.77
2018-05-25T08:47:23.577Z,10.43
2018-05-25T08:50:07.835Z,13.23
2018-05-25T08:52:52.068Z,11.80
2018-05-25T08:55:37.156Z,12.73
2018-05-25T08:58:21.514Z,11.27
2018-05-25T09:01:05.684Z,12.30
2018-05-25T09:03:49.940Z,11.40
2018-05-25T09:06:34.169Z,11.70
2018-05-25T09:09:18.397Z,9.37
2018-05-25T09:12:02.636Z,11.53
2018-05-25T09:14:46.898Z,11.67
2018-05-25T09:17:31.149Z,11.30
2018-05-25T09:20:15.447Z,10.87
2018-05-25T09:22:59.715Z,10.43
2018-05-25T09:25:43.948Z,11.07
2018-05-25T09:28:28.224Z,11.63
2018-05-25T09:31:12.465Z,11.23
2018-05-25T09:33:56.698Z,12.07
2018-05-25T09:36:41.781Z,9.87
2018-05-25T09:39:25.989Z,11.53
2018-05-25T09:42:10.269Z,11.87
2018-05-25T09:44:54.505Z,10.90
2018-05-25T09:47:38.765Z,11.40
2018-05-25T09:50:23.004Z,10.57
2018-05-25T09:53:07.244Z,9.67
2018-05-25T09:55:52.233Z,10.27
2018-05-25T09:58:36.472Z,9.60
2018-05-25T10:01:20.690Z,9.13
2018-05-25T10:04:04.969Z,9.20
2018-05-25T10:06:49.949Z,9.50
2018-05-25T10:09:34.225Z,8.40
2018-05-25T10:12:18.438Z,8.53
2018-05-25T10:15:03.453Z,9.17
2018-05-25T10:17:47.736Z,10.00
2018-05-25T10:20:31.962Z,9.63
2018-05-25T10:23:16.230Z,11.17
2018-05-25T10:26:00.454Z,11.00
2018-05-25T10:28:44.724Z,11.00
2018-05-25T10:31:29.111Z,11.27
2018-05-25T10:34:13.371Z,11.50
2018-05-25T10:36:57.620Z,11.13
2018-05-25T10:39:41.857Z,13.57
2018-05-25T10:42:26.082Z,11.30
2018-05-25T10:45:10.335Z,11.17
2018-05-25T10:47:54.568Z,9.37
2018-05-25T10:50:38.830Z,10.27
2018-05-25T10:53:23.051Z,10.07
2018-05-25T10:56:08.055Z,9.10
2018-05-25T10:58:52.300Z,10.60
2018-05-25T11:01:36.529Z,11.00
2018-05-25T11:04:21.539Z,9.57
2018-05-25T11:07:05.781Z,10.40
2018-05-25T11:09:50.049Z,10.00
2018-05-25T11:12:34.274Z,10.13
2018-05-25T11:15:18.505Z,8.73
2018-05-25T11:18:03.510Z,8.00
2018-05-25T11:20:47.755Z,8.53
2018-05-25T11:23:31.969Z,9.67
2018-05-25T11:26:16.979Z,9.53
2018-05-25T11:29:01.207Z,10.77
2018-05-25T11:31:46.234Z,9.63
2018-05-25T11:34:30.437Z,9.13
2018-05-25T11:37:14.682Z,9.17
2018-05-25T11:39:59.693Z,8.03
2018-05-25T11:42:43.910Z,4.90
2018-05-25T11:45:28.931Z,4.50
2018-05-25T11:48:13.155Z,5.03
2018-05-25T11:50:57.413Z,4.90
2018-05-25T11:53:41.655Z,4.73
2018-05-25T11:56:25.916Z,4.70
2018-05-25T11:59:10.141Z,4.50
2018-05-25T12:01:55.150Z,4.53
2018-05-25T12:04:39.384Z,5.00
2018-05-25T12:07:23.620Z,5.47
2018-05-25T12:10:08.664Z,6.40
2018-05-25T12:12:52.892Z,6.77
2018-05-25T12:15:37.121Z,6.30
2018-05-25T12:18:21.357Z,8.30
2018-05-25T12:21:05.597Z,8.30
2018-05-25T12:23:49.988Z,7.70
2018-05-25T12:26:34.252Z,8.60
2018-05-25T12:29:18.469Z,6.60
2018-05-25T12:32:02.726Z,7.63
2018-05-25T12:34:46.934Z,8.83
2018-05-25T12:37:31.198Z,7.83
2018-05-25T12:40:15.410Z,9.97
2018-05-25T12:42:59.669Z,9.80
2018-05-25T12:45:43.915Z,10.30
2018-05-25T12:48:28.189Z,10.37
2018-05-25T12:51:12.445Z,9.97
2018-05-25T12:53:56.704Z,9.63
2018-05-25T12:56:40.951Z,8.87
2018-05-25T12:59:25.192Z,8.60
2018-05-25T13:02:09.399Z,8.10
2018-05-25T13:04:53.637Z,7.50
2018-05-25T13:07:38.641Z,8.40
2018-05-25T13:10:22.882Z,6.57
2018-05-25T13:13:07.128Z,5.90
2018-05-25T13:15:51.350Z,8.83
2018-05-25T13:18:35.602Z,6.90
2018-05-25T13:21:19.837Z,6.37
2018-05-25T13:24:04.084Z,6.30
2018-05-25T13:26:48.326Z,4.97
2018-05-25T13:29:32.539Z,5.33
2018-05-25T13:32:16.778Z,6.17
2018-05-25T13:35:01.762Z,6.00
2018-05-25T13:37:46.013Z,7.03
2018-05-25T13:40:31.010Z,6.07
2018-05-25T13:43:15.245Z,6.40
2018-05-25T13:45:59.484Z,6.50
2018-05-25T13:48:44.505Z,7.60
2018-05-25T13:51:28.708Z,6.13
2018-05-25T13:54:13.720Z,6.07
2018-05-25T13:56:57.952Z,6.77
2018-05-25T13:59:42.208Z,5.43
2018-05-25T14:02:26.419Z,5.77
2018-05-25T14:05:10.670Z,5.53
2018-05-25T14:07:55.688Z,4.60
2018-05-25T14:10:39.949Z,4.90
2018-05-25T14:13:24.142Z,5.17
2018-05-25T14:16:08.386Z,5.60
2018-05-25T14:18:52.619Z,4.60
2018-05-25T14:21:36.870Z,4.40
2018-05-25T14:24:21.113Z,4.20
2018-05-25T14:27:05.364Z,4.40
2018-05-25T14:29:49.588Z,4.60
2018-05-25T14:32:33.840Z,4.07
2018-05-25T14:35:18.853Z,4.10
2018-05-25T14:38:03.061Z,4.47
2018-05-25T14:40:47.313Z,4.07
2018-05-25T14:43:32.307Z,4.13
2018-05-25T14:46:16.561Z,4.57
2018-05-25T14:49:00.767Z,4.70
2018-05-25T14:51:45.786Z,4.57
2018-05-25T14:54:30.006Z,5.20
2018-05-25T14:57:14.241Z,5.63
2018-05-25T14:59:58.481Z,5.40
2018-05-25T15:02:42.713Z,6.00
2018-05-25T15:05:26.979Z,6.00
2018-05-25T15:08:11.181Z,6.13
2018-05-25T15:10:55.441Z,5.77
2018-05-25T15:13:39.665Z,4.70
2018-05-25T15:16:24.705Z,5.30
2018-05-25T15:19:08.952Z,5.43
2018-05-25T15:21:53.410Z,5.10
2018-05-25T15:24:37.669Z,5.20
2018-05-25T15:27:21.887Z,5.80
2018-05-25T15:30:06.123Z,4.80
2018-05-25T15:32:50.334Z,4.97
2018-05-25T15:35:34.564Z,5.90
2018-05-25T15:38:18.820Z,5.27
2018-05-25T15:41:03.036Z,5.03
2018-05-25T15:43:47.281Z,4.50
2018-05-25T15:46:31.509Z,4.40
2018-05-25T15:49:15.753Z,4.73
2018-05-25T15:52:00.005Z,4.47
2018-05-25T15:54:44.320Z,4.83
2018-05-25T15:57:28.556Z,4.70
2018-05-25T16:00:12.774Z,4.77
2018-05-25T16:02:57.791Z,4.33
2018-05-25T16:05:41.998Z,4.27
2018-05-25T16:08:27.022Z,3.73
2018-05-25T16:11:11.252Z,3.93
2018-05-25T16:13:55.495Z,4.17
2018-05-25T16:16:40.485Z,4.03
2018-05-25T16:19:25.549Z,3.60
2018-05-25T16:22:09.771Z,3.63
2018-05-25T16:24:54.792Z,3.67
2018-05-25T16:27:39.012Z,3.53
2018-05-25T16:30:23.234Z,3.60
2018-05-25T16:33:07.475Z,3.20
2018-05-25T16:35:52.656Z,3.30
2018-05-25T16:38:36.903Z,2.93
2018-05-25T16:41:21.122Z,3.30
2018-05-25T16:44:05.386Z,3.10
2018-05-25T16:46:49.635Z,2.70
2018-05-25T16:49:33.861Z,3.60
2018-05-25T16:52:18.115Z,3.40
2018-05-25T16:55:02.334Z,3.23
2018-05-25T16:57:47.353Z,3.30
2018-05-25T17:00:31.582Z,3.80
2018-05-25T17:03:16.574Z,3.47
2018-05-25T17:06:00.801Z,4.20
2018-05-25T17:08:45.035Z,3.97
2018-05-25T17:11:29.293Z,3.33
2018-05-25T17:14:14.271Z,3.67
2018-05-25T17:16:59.293Z,4.10
2018-05-25T17:19:43.585Z,3.77
2018-05-25T17:22:27.836Z,3.80
2018-05-25T17:25:12.815Z,3.47
2018-05-25T17:27:57.804Z,4.00
2018-05-25T17:30:42.071Z,3.80
2018-05-25T17:33:26.255Z,3.43
2018-05-25T17:36:10.513Z,3.70
2018-05-25T17:38:54.754Z,3.70
2018-05-25T17:41:39.001Z,3.60
2018-05-25T17:44:23.312Z,3.40
2018-05-25T17:47:08.485Z,4.10
2018-05-25T17:49:53.549Z,4.50
2018-05-25T17:52:38.813Z,3.80
2018-05-25T17:55:23.046Z,3.40
2018-05-25T17:58:07.323Z,2.97
2018-05-25T18:00:52.416Z,3.60
2018-05-25T18:03:37.740Z,3.33
2018-05-25T18:06:22.029Z,3.90
2018-05-25T18:09:07.093Z,3.53
2018-05-25T18:11:51.396Z,3.97
2018-05-25T18:14:35.627Z,3.77
2018-05-25T18:17:19.885Z,3.60
2018-05-25T18:20:04.210Z,3.93
2018-05-25T18:22:48.432Z,3.80
2018-05-25T18:25:33.450Z,3.90
2018-05-25T18:28:17.674Z,3.63
2018-05-25T18:31:01.915Z,3.30
2018-05-25T18:33:46.155Z,3.60
2018-05-25T18:36:31.202Z,3.90
2018-05-25T18:39:15.448Z,3.90
2018-05-25T18:41:59.682Z,3.63
2018-05-25T18:44:43.894Z,3.37
2018-05-25T18:47:28.147Z,5.40
2018-05-25T18:50:12.392Z,4.50
2018-05-25T18:52:57.378Z,3.80
2018-05-25T18:55:41.632Z,3.80
2018-05-25T18:58:25.856Z,4.23
2018-05-25T19:01:10.875Z,4.70
2018-05-25T19:03:55.891Z,4.37
2018-05-25T19:06:40.142Z,4.67
2018-05-25T19:09:24.375Z,4.37
2018-05-25T19:12:08.589Z,4.83
2018-05-25T19:14:52.813Z,4.87
2018-05-25T19:17:37.073Z,4.70
2018-05-25T19:20:21.287Z,4.80
2018-05-25T19:23:05.528Z,4.87
2018-05-25T19:25:49.761Z,4.63
2018-05-25T19:28:34.783Z,4.47
2018-05-25T19:31:19.032Z,5.03
2018-05-25T19:34:03.276Z,5.33
2018-05-25T19:36:47.542Z,4.87
2018-05-25T19:39:31.785Z,5.40
2018-05-25T19:42:16.048Z,5.47
2018-05-25T19:45:00.299Z,5.33
2018-05-25T19:47:44.558Z,5.10
2018-05-25T19:50:28.809Z,5.27
2018-05-25T19:53:13.035Z,5.23
2018-05-25T19:55:57.288Z,5.53
2018-05-25T19:58:41.551Z,6.10
2018-05-25T20:01:25.786Z,5.80
2018-05-25T20:04:10.073Z,5.40
2018-05-25T20:06:54.285Z,7.83
2018-05-25T20:09:38.537Z,5.77
2018-05-25T20:12:22.930Z,8.87
2018-05-25T20:15:07.147Z,6.17
2018-05-25T20:17:52.144Z,6.20
2018-05-25T20:20:36.373Z,6.43
2018-05-25T20:23:20.623Z,6.17
2018-05-25T20:26:05.644Z,6.67
2018-05-25T20:28:49.868Z,6.23
2018-05-25T20:31:35.023Z,5.83
2018-05-25T20:34:20.034Z,6.40
2018-05-25T20:37:04.294Z,6.27
2018-05-25T20:39:48.552Z,6.13
2018-05-25T20:42:32.813Z,6.20
2018-05-25T20:45:17.063Z,6.60
2018-05-25T20:48:01.309Z,6.23
2018-05-25T20:50:45.547Z,5.90
2018-05-25T20:53:29.792Z,6.60
2018-05-25T20:56:14.036Z,5.87
2018-05-25T20:58:58.271Z,7.00
2018-05-25T21:01:42.552Z,5.53
2018-05-25T21:04:26.787Z,6.77
2018-05-25T21:07:11.026Z,6.03
2018-05-25T21:09:55.281Z,6.53
2018-05-25T21:12:39.500Z,6.00
2018-05-25T21:15:23.760Z,6.77
2018-05-25T21:18:08.002Z,6.53
2018-05-25T21:20:52.222Z,7.43
2018-05-25T21:23:36.468Z,6.07
2018-05-25T21:26:20.700Z,7.30
2018-05-25T21:29:04.938Z,6.67
2018-05-25T21:31:49.939Z,7.70
2018-05-25T21:34:34.196Z,6.87
2018-05-25T21:37:18.486Z,6.77
2018-05-25T21:40:02.719Z,6.77
2018-05-25T21:42:46.969Z,6.97
2018-05-25T21:45:31.185Z,7.17
2018-05-25T21:48:15.443Z,7.37
2018-05-25T21:50:59.678Z,6.80
2018-05-25T21:53:44.672Z,7.07
2018-05-25T21:56:28.916Z,7.23
2018-05-25T21:59:13.169Z,7.13
2018-05-25T22:01:57.396Z,6.50
2018-05-25T22:04:42.393Z,7.70
2018-05-25T22:07:26.641Z,6.93
2018-05-25T22:10:10.866Z,6.73
2018-05-25T22:12:55.077Z,7.00
2018-05-25T22:15:39.315Z,6.90
2018-05-25T22:18:23.522Z,7.03
2018-05-25T22:21:09.471Z,7.13
2018-05-25T22:23:53.711Z,7.20
2018-05-25T22:26:37.929Z,6.97
2018-05-25T22:29:22.932Z,12.37
2018-05-25T22:32:07.167Z,8.40
2018-05-25T22:34:51.383Z,6.93
2018-05-25T22:37:35.639Z,7.07
2018-05-25T22:40:19.883Z,7.83
2018-05-25T22:43:21.663Z,6.77
2018-05-25T22:46:23.631Z,6.80
2018-05-25T22:49:26.281Z,7.00
2018-05-25T22:52:22.271Z,6.97
2018-05-25T22:55:13.121Z,7.73
2018-05-25T22:57:57.371Z,6.60
2018-05-25T23:00:44.301Z,9.37
2018-05-25T23:03:28.549Z,7.17
2018-05-25T23:06:12.758Z,7.30
2018-05-25T23:08:57.009Z,6.87
2018-05-25T23:11:41.275Z,7.17
2018-05-25T23:14:25.514Z,6.90
2018-05-25T23:17:09.798Z,7.63
2018-05-25T23:19:54.012Z,7.53
2018-05-25T23:22:38.247Z,7.10
2018-05-25T23:25:23.264Z,7.63
2018-05-25T23:28:07.468Z,7.80
2018-05-25T23:30:51.734Z,8.60
2018-05-25T23:33:36.749Z,7.77
2018-05-25T23:36:20.996Z,8.33
2018-05-25T23:39:06.182Z,8.63
2018-05-25T23:41:50.410Z,7.87
2018-05-25T23:44:34.625Z,7.73
2018-05-25T23:47:19.633Z,7.47
2018-05-25T23:50:03.895Z,7.60
2018-05-25T23:52:48.100Z,8.03
2018-05-25T23:55:33.138Z,8.67
2018-05-25T23:58:17.429Z,7.47
